Time;durP1;ratioP1;P1;durP2;ratioP2;P2;SDS_P1;SDS_P2;PMS_P1;PMS_P2;Temp;Humidity;BMP_temperature;BMP_pressure;BME280_temperature;BME280_humidity;BME280_pressure;Samples;Min_cycle;Max_cycle;Signal;HPM_P1;HPM_P2
2021/12/06 00:00:11;;;;;;;31.75;21.48;;;1.90;99.90;;;;;;5060452;28;20047;-86
2021/12/06 00:02:36;;;;;;;26.10;17.85;;;1.80;99.90;;;;;;5061839;28;20041;-85
2021/12/06 00:05:02;;;;;;;31.23;21.25;;;1.90;99.90;;;;;;5060955;28;20376;-86
2021/12/06 00:07:28;;;;;;;32.90;19.30;;;1.80;99.90;;;;;;5057647;28;20514;-87
2021/12/06 00:09:53;;;;;;;29.67;20.52;;;1.90;99.90;;;;;;5037475;28;20068;-79
2021/12/06 00:12:20;;;;;;;26.35;18.98;;;1.90;99.90;;;;;;5038894;28;20059;-85
2021/12/06 00:14:46;;;;;;;29.38;21.38;;;2.00;99.90;;;;;;5080405;28;20153;-86
2021/12/06 00:17:16;;;;;;;30.13;20.98;;;2.00;99.90;;;;;;5084042;28;20122;-83
2021/12/06 00:19:43;;;;;;;34.30;20.52;;;2.00;99.90;;;;;;5086272;28;20051;-85
2021/12/06 00:22:13;;;;;;;32.58;21.50;;;1.90;99.90;;;;;;5069051;28;20455;-84
2021/12/06 00:24:39;;;;;;;26.85;20.52;;;2.00;99.90;;;;;;5084606;28;20056;-85
2021/12/06 00:27:05;;;;;;;38.83;25.33;;;2.10;99.90;;;;;;5079168;28;20036;-86
2021/12/06 00:29:31;;;;;;;33.65;21.65;;;2.00;99.90;;;;;;5078602;28;20065;-86
2021/12/06 00:31:57;;;;;;;31.08;22.08;;;1.90;99.90;;;;;;5062345;28;20056;-84
2021/12/06 00:34:25;;;;;;;31.33;22.15;;;2.00;99.90;;;;;;5060535;28;20051;-85
2021/12/06 00:37:05;;;;;;;35.50;24.20;;;1.90;99.90;;;;;;5081624;28;20048;-86
2021/12/06 00:39:32;;;;;;;40.78;24.92;;;1.90;99.90;;;;;;5078036;28;20379;-85
2021/12/06 00:41:58;;;;;;;33.22;22.83;;;2.00;99.90;;;;;;5079945;28;20429;-87
2021/12/06 00:44:23;;;;;;;38.70;24.48;;;2.00;99.90;;;;;;5079569;28;20032;-85
2021/12/06 00:46:49;;;;;;;40.03;26.70;;;1.90;99.90;;;;;;5079256;28;20048;-87
2021/12/06 00:49:15;;;;;;;36.67;25.88;;;1.90;99.90;;;;;;5059061;28;20077;-85
2021/12/06 00:51:40;;;;;;;36.35;25.58;;;1.90;99.90;;;;;;5076865;28;20044;-85
2021/12/06 00:54:09;;;;;;;43.45;28.92;;;2.00;99.90;;;;;;5073568;28;20128;-85
2021/12/06 00:56:37;;;;;;;41.10;25.75;;;1.90;99.90;;;;;;5085879;28;20177;-85
2021/12/06 00:59:03;;;;;;;39.17;24.90;;;2.00;99.90;;;;;;5084799;28;20040;-86
2021/12/06 01:01:30;;;;;;;43.28;27.25;;;1.90;99.90;;;;;;5072551;28;20095;-87
2021/12/06 01:03:56;;;;;;;41.20;26.20;;;1.90;99.90;;;;;;5081665;28;20166;-86
2021/12/06 01:06:21;;;;;;;44.70;30.77;;;2.00;99.90;;;;;;5088848;28;20502;-85
2021/12/06 01:08:47;;;;;;;38.13;26.33;;;1.90;99.90;;;;;;5074838;28;20041;-87
2021/12/06 01:11:13;;;;;;;37.08;24.55;;;2.00;99.90;;;;;;5058157;28;20074;-78
2021/12/06 01:13:40;;;;;;;38.28;25.50;;;1.90;99.90;;;;;;5080161;28;20139;-85
2021/12/06 01:16:09;;;;;;;39.38;26.27;;;1.90;99.90;;;;;;5078228;28;20067;-86
2021/12/06 01:18:36;;;;;;;40.97;25.88;;;2.00;99.90;;;;;;5063560;28;20068;-86
2021/12/06 01:21:14;;;;;;;42.35;25.67;;;2.00;99.90;;;;;;5077330;28;20394;-77
2021/12/06 01:23:49;;;;;;;41.53;25.80;;;2.00;99.90;;;;;;5084192;28;20048;-81
2021/12/06 01:39:08;;;;;;;44.20;28.40;;;2.00;99.90;;;;;;5076887;28;20415;-85
2021/12/06 01:39:36;;;;;;;49.40;28.05;;;2.00;99.90;;;;;;5060697;28;20083;-85
2021/12/06 01:42:04;;;;;;;42.33;27.27;;;2.00;99.90;;;;;;5041911;28;20045;-83
2021/12/06 01:44:35;;;;;;;42.63;28.42;;;2.00;99.90;;;;;;5056536;28;20040;-86
2021/12/06 01:47:10;;;;;;;46.70;29.17;;;2.00;99.90;;;;;;5081401;28;20037;-87
2021/12/06 01:49:39;;;;;;;48.10;28.50;;;1.90;99.90;;;;;;5075106;28;20038;-85
2021/12/06 01:52:14;;;;;;;53.35;30.65;;;2.00;99.90;;;;;;5058799;28;20048;-86
2021/12/06 01:54:40;;;;;;;42.22;27.15;;;2.00;99.90;;;;;;5091543;28;20398;-86
2021/12/06 01:57:07;;;;;;;48.50;29.08;;;1.90;99.90;;;;;;5075228;28;20060;-84
2021/12/06 01:59:33;;;;;;;49.33;29.55;;;2.00;99.90;;;;;;5059174;28;20131;-86
2021/12/06 02:01:58;;;;;;;45.60;28.50;;;1.90;99.90;;;;;;5077900;28;20124;-86
2021/12/06 02:04:26;;;;;;;45.90;28.45;;;2.00;99.90;;;;;;5057654;28;20105;-86
2021/12/06 02:06:52;;;;;;;42.67;25.23;;;2.00;99.90;;;;;;5056141;28;20040;-85
2021/12/06 02:09:19;;;;;;;47.95;29.67;;;2.00;99.90;;;;;;5073050;28;20406;-86
2021/12/06 02:11:45;;;;;;;45.53;27.38;;;2.00;99.90;;;;;;5076614;28;20080;-86
2021/12/06 02:17:17;;;;;;;42.42;29.00;;;2.00;99.90;;;;;;5046453;28;20052;-85
2021/12/06 02:19:48;;;;;;;48.35;28.38;;;2.00;99.90;;;;;;5077692;28;20059;-78
2021/12/06 02:22:23;;;;;;;46.78;29.27;;;2.00;99.90;;;;;;5081540;28;20040;-78
2021/12/06 02:24:51;;;;;;;49.08;28.63;;;2.00;99.90;;;;;;5087002;28;20040;-86
2021/12/06 02:27:17;;;;;;;48.25;29.73;;;2.00;99.90;;;;;;5081413;28;20124;-85
2021/12/06 02:29:46;;;;;;;48.72;29.13;;;2.00;99.90;;;;;;5078366;28;20111;-80
2021/12/06 02:32:13;;;;;;;45.58;27.20;;;1.90;99.90;;;;;;5057654;28;20032;-84
2021/12/06 02:34:47;;;;;;;49.95;29.88;;;1.90;99.90;;;;;;5078075;28;20071;-85
2021/12/06 02:37:15;;;;;;;45.28;28.00;;;1.90;99.90;;;;;;5072405;28;20123;-81
2021/12/06 02:39:41;;;;;;;51.05;31.08;;;2.00;99.90;;;;;;5074499;28;20051;-85
2021/12/06 02:42:11;;;;;;;49.40;29.55;;;2.00;99.90;;;;;;5077750;28;20040;-86
2021/12/06 02:44:38;;;;;;;49.60;29.27;;;2.00;99.90;;;;;;5078459;28;20040;-84
2021/12/06 02:47:04;;;;;;;51.40;34.00;;;1.90;99.90;;;;;;5074182;28;20040;-85
2021/12/06 02:49:31;;;;;;;57.95;31.65;;;2.00;99.90;;;;;;5082590;28;20095;-83
2021/12/06 02:51:57;;;;;;;57.55;32.65;;;2.00;99.90;;;;;;5072009;28;20031;-84
2021/12/06 02:54:25;;;;;;;53.33;32.13;;;2.00;99.90;;;;;;5085022;28;20032;-85
2021/12/06 02:56:55;;;;;;;68.88;35.25;;;1.90;99.90;;;;;;5085669;28;20048;-83
2021/12/06 02:59:25;;;;;;;58.95;35.55;;;2.00;99.90;;;;;;5057204;28;20188;-84
2021/12/06 03:01:58;;;;;;;58.72;34.40;;;2.00;99.90;;;;;;5076000;28;20040;-85
2021/12/06 03:04:23;;;;;;;57.50;33.75;;;2.00;99.90;;;;;;5078590;28;20036;-86
2021/12/06 03:06:54;;;;;;;62.67;37.80;;;1.90;99.90;;;;;;5073296;28;20055;-85
2021/12/06 03:09:24;;;;;;;55.08;32.92;;;1.90;99.90;;;;;;5079803;28;20036;-82
2021/12/06 03:11:54;;;;;;;58.08;34.03;;;1.90;99.90;;;;;;5069265;28;20055;-85
2021/12/06 03:14:27;;;;;;;60.10;34.70;;;2.00;99.90;;;;;;5064843;28;20074;-84
2021/12/06 03:16:55;;;;;;;62.58;35.45;;;2.00;99.90;;;;;;5081257;28;20040;-86
2021/12/06 03:19:21;;;;;;;62.90;36.45;;;2.10;99.90;;;;;;5092282;28;20036;-85
2021/12/06 03:21:47;;;;;;;53.13;32.47;;;2.10;99.90;;;;;;5084573;28;20036;-84
2021/12/06 03:24:13;;;;;;;55.55;32.72;;;2.00;99.90;;;;;;5078038;28;20060;-83
2021/12/06 03:26:40;;;;;;;60.05;35.67;;;2.10;99.90;;;;;;5045724;28;20048;-85
2021/12/06 03:29:06;;;;;;;57.63;32.53;;;2.00;99.90;;;;;;5079814;28;20581;-85
2021/12/06 03:31:32;;;;;;;55.58;33.38;;;2.10;99.90;;;;;;5075128;28;20036;-85
2021/12/06 03:33:58;;;;;;;53.45;32.92;;;2.00;99.90;;;;;;5074181;28;20036;-84
2021/12/06 03:36:26;;;;;;;58.42;29.80;;;2.00;99.90;;;;;;5076006;28;20549;-84
2021/12/06 03:38:52;;;;;;;53.90;31.65;;;2.10;99.90;;;;;;5079358;28;20146;-84
2021/12/06 03:41:20;;;;;;;55.03;31.58;;;2.10;99.90;;;;;;5075333;28;20105;-85
2021/12/06 03:43:46;;;;;;;56.28;29.48;;;2.00;99.90;;;;;;5057825;28;20044;-85
2021/12/06 03:46:15;;;;;;;54.28;30.13;;;2.10;99.90;;;;;;5077670;28;20064;-85
2021/12/06 03:48:41;;;;;;;54.23;29.67;;;2.00;99.90;;;;;;5078055;28;20044;-83
2021/12/06 03:51:08;;;;;;;52.25;34.05;;;2.10;99.90;;;;;;5076401;28;20402;-85
2021/12/06 03:53:34;;;;;;;59.65;33.53;;;2.00;99.90;;;;;;5059291;28;20036;-84
2021/12/06 03:56:00;;;;;;;55.70;31.65;;;2.10;99.90;;;;;;5076375;28;20042;-85
2021/12/06 03:58:26;;;;;;;55.47;34.88;;;2.00;99.90;;;;;;5056600;28;20036;-85
2021/12/06 04:00:53;;;;;;;61.55;36.33;;;2.10;99.90;;;;;;5061681;28;20401;-85
2021/12/06 04:03:20;;;;;;;55.67;30.67;;;2.10;99.90;;;;;;5076397;28;20055;-85
2021/12/06 04:05:46;;;;;;;55.20;32.60;;;2.10;99.90;;;;;;5058911;28;20048;-85
2021/12/06 04:08:12;;;;;;;56.88;34.22;;;2.00;99.90;;;;;;5077213;28;20152;-87
2021/12/06 04:10:38;;;;;;;56.38;32.15;;;2.10;99.90;;;;;;5063869;28;20521;-86
2021/12/06 04:13:03;;;;;;;58.78;35.35;;;2.20;99.90;;;;;;5080238;28;20152;-86
2021/12/06 04:15:29;;;;;;;60.33;33.95;;;2.10;99.90;;;;;;5081653;28;20264;-88
2021/12/06 04:17:57;;;;;;;59.00;35.65;;;2.20;99.90;;;;;;5061644;28;20105;-86
2021/12/06 04:20:22;;;;;;;62.97;35.90;;;2.20;99.90;;;;;;5080331;28;20104;-83
2021/12/06 04:22:48;;;;;;;55.63;30.65;;;2.20;99.90;;;;;;5077049;28;20036;-84
2021/12/06 04:25:16;;;;;;;52.60;30.15;;;2.10;99.90;;;;;;5078652;28;20044;-80
2021/12/06 04:27:42;;;;;;;57.45;33.58;;;2.10;99.90;;;;;;5080630;28;20079;-84
2021/12/06 04:30:10;;;;;;;57.67;33.35;;;2.20;99.90;;;;;;5080732;28;20511;-84
2021/12/06 04:32:35;;;;;;;56.17;31.95;;;2.20;99.90;;;;;;5081118;28;20051;-85
2021/12/06 04:35:01;;;;;;;53.45;32.55;;;2.20;99.90;;;;;;5085967;28;20040;-84
2021/12/06 04:37:27;;;;;;;53.22;30.75;;;2.20;99.90;;;;;;5094649;28;20387;-84
2021/12/06 04:39:53;;;;;;;56.53;33.88;;;2.20;99.90;;;;;;5093818;28;20147;-84
2021/12/06 04:42:20;;;;;;;54.55;31.95;;;2.20;99.90;;;;;;5072658;28;20040;-84
2021/12/06 04:44:46;;;;;;;61.78;33.90;;;2.20;99.90;;;;;;5059046;28;20036;-87
2021/12/06 04:47:12;;;;;;;55.13;33.97;;;2.20;99.90;;;;;;5072794;28;20113;-84
2021/12/06 04:49:38;;;;;;;55.75;33.40;;;2.10;99.90;;;;;;5076058;28;20044;-84
2021/12/06 04:52:07;;;;;;;53.17;31.23;;;2.20;99.90;;;;;;5085811;28;20512;-85
2021/12/06 04:54:37;;;;;;;59.57;31.40;;;2.10;99.90;;;;;;5079636;28;20082;-86
2021/12/06 04:57:27;;;;;;;55.78;31.10;;;2.20;99.90;;;;;;5084035;28;20504;-86
2021/12/06 05:00:25;;;;;;;54.75;35.72;;;2.10;99.90;;;;;;5057301;28;20044;-79
2021/12/06 05:02:50;;;;;;;55.75;31.60;;;2.10;99.90;;;;;;5070063;28;20147;-85
2021/12/06 05:05:22;;;;;;;55.17;30.88;;;2.00;99.90;;;;;;5078186;28;20132;-85
2021/12/06 05:07:52;;;;;;;52.10;30.95;;;2.20;99.90;;;;;;5086533;28;20040;-84
2021/12/06 05:10:18;;;;;;;50.85;30.20;;;2.10;99.90;;;;;;5089813;28;20051;-84
2021/12/06 05:12:45;;;;;;;50.58;30.65;;;2.10;99.90;;;;;;5055021;28;20509;-85
2021/12/06 05:15:12;;;;;;;53.17;32.17;;;2.10;99.90;;;;;;5086691;28;20044;-83
2021/12/06 05:17:38;;;;;;;58.83;32.65;;;2.20;99.90;;;;;;5076439;28;20444;-86
2021/12/06 05:20:05;;;;;;;60.28;34.17;;;2.00;99.90;;;;;;5074048;28;20043;-85
2021/12/06 05:22:32;;;;;;;57.50;29.27;;;2.10;99.90;;;;;;5069833;28;20456;-85
2021/12/06 05:24:58;;;;;;;51.60;31.08;;;2.00;99.90;;;;;;5083907;28;20052;-85
2021/12/06 05:27:28;;;;;;;57.17;31.58;;;2.20;99.90;;;;;;5075327;28;20040;-86
2021/12/06 05:29:58;;;;;;;;;;;2.10;99.90;;;;;;5104126;28;20056;-74
2021/12/06 05:32:30;;;;;;;52.00;29.80;;;2.20;99.90;;;;;;5075583;28;19920;-83
2021/12/06 05:35:02;;;;;;;55.80;29.65;;;2.20;99.90;;;;;;5095157;28;20036;-81
2021/12/06 05:37:28;;;;;;;57.72;31.70;;;2.10;99.90;;;;;;5070209;28;20047;-81
2021/12/06 05:39:55;;;;;;;52.47;28.70;;;2.10;99.90;;;;;;5098147;28;20024;-73
2021/12/06 05:42:21;;;;;;;52.38;28.42;;;2.00;99.90;;;;;;5096467;28;20547;-84
2021/12/06 05:44:48;;;;;;;54.47;29.13;;;2.00;99.90;;;;;;5104664;28;20075;-83
2021/12/06 05:47:14;;;;;;;49.53;28.70;;;2.10;99.90;;;;;;5105644;28;20048;-74
2021/12/06 05:49:40;;;;;;;52.13;30.58;;;2.20;99.90;;;;;;5083219;28;20062;-83
2021/12/06 05:52:06;;;;;;;48.80;29.95;;;2.20;99.90;;;;;;5107922;28;20043;-82
2021/12/06 05:54:32;;;;;;;47.30;27.55;;;2.10;99.90;;;;;;5071831;28;20044;-82
2021/12/06 05:56:58;;;;;;;55.00;32.20;;;2.10;99.90;;;;;;5101836;28;20040;-84
2021/12/06 05:59:24;;;;;;;58.03;31.58;;;2.10;99.90;;;;;;5102938;28;20050;-82
2021/12/06 06:01:53;;;;;;;53.42;31.00;;;2.20;99.90;;;;;;5099449;28;20037;-84
2021/12/06 06:04:19;;;;;;;61.17;33.55;;;2.00;99.90;;;;;;5070438;28;20047;-82
2021/12/06 06:06:45;;;;;;;60.20;32.33;;;2.20;99.90;;;;;;5094308;28;20040;-83
2021/12/06 06:09:10;;;;;;;56.85;31.13;;;2.10;99.90;;;;;;5101005;28;20048;-84
2021/12/06 06:11:36;;;;;;;58.42;33.72;;;2.10;99.90;;;;;;5087520;28;20533;-83
2021/12/06 06:14:04;;;;;;;59.05;32.17;;;2.20;99.90;;;;;;5104023;28;20040;-77
2021/12/06 06:16:33;;;;;;;58.88;32.92;;;2.00;99.90;;;;;;5109063;28;20035;-82
2021/12/06 06:18:59;;;;;;;58.72;32.65;;;2.10;99.90;;;;;;5085036;28;20036;-84
2021/12/06 06:21:25;;;;;;;58.97;33.28;;;2.20;99.90;;;;;;5090481;28;20035;-85
2021/12/06 06:23:50;;;;;;;58.92;30.88;;;2.10;99.90;;;;;;5073802;28;20392;-85
2021/12/06 06:26:16;;;;;;;62.83;35.25;;;2.20;99.90;;;;;;5054439;28;20075;-84
2021/12/06 06:28:42;;;;;;;60.97;32.60;;;2.20;99.90;;;;;;5086773;28;20040;-83
2021/12/06 06:31:07;;;;;;;64.30;30.20;;;2.10;99.90;;;;;;5088837;28;20123;-85
2021/12/06 06:33:33;;;;;;;64.15;34.47;;;2.20;99.90;;;;;;5073837;28;20099;-86
2021/12/06 06:35:58;;;;;;;57.05;33.05;;;2.10;99.90;;;;;;5061158;28;20051;-86
2021/12/06 06:38:24;;;;;;;67.60;34.65;;;2.10;99.90;;;;;;5052860;28;20589;-85
2021/12/06 06:40:50;;;;;;;64.03;36.03;;;2.10;99.90;;;;;;5070503;28;20059;-86
2021/12/06 06:43:17;;;;;;;63.85;34.63;;;2.00;99.90;;;;;;5073604;28;20377;-86
2021/12/06 06:45:42;;;;;;;68.18;34.67;;;2.00;99.90;;;;;;5084171;28;20036;-72
2021/12/06 06:48:08;;;;;;;68.43;36.97;;;2.20;99.90;;;;;;5066571;28;20102;-82
2021/12/06 06:50:34;;;;;;;65.50;33.40;;;2.00;99.90;;;;;;5072925;28;20094;-82
2021/12/06 06:53:00;;;;;;;62.70;34.10;;;2.20;99.90;;;;;;5086283;28;20075;-86
2021/12/06 06:55:25;;;;;;;61.58;32.97;;;2.10;99.90;;;;;;5053946;28;20072;-86
2021/12/06 06:57:52;;;;;;;67.45;33.45;;;2.10;99.90;;;;;;5054756;28;20044;-78
2021/12/06 07:00:21;;;;;;;74.30;38.97;;;2.20;99.90;;;;;;5081587;28;20037;-86
2021/12/06 07:02:47;;;;;;;61.53;32.92;;;2.20;99.90;;;;;;5068672;28;20119;-85
2021/12/06 07:05:13;;;;;;;56.45;31.88;;;2.30;99.90;;;;;;5060319;28;20167;-82
2021/12/06 07:07:39;;;;;;;64.90;34.60;;;2.30;99.90;;;;;;5044038;28;20041;-86
2021/12/06 07:10:05;;;;;;;60.92;32.65;;;2.20;99.90;;;;;;5051044;28;20049;-83
2021/12/06 07:12:31;;;;;;;64.68;34.03;;;2.10;99.90;;;;;;5066650;28;20551;-85
2021/12/06 07:14:57;;;;;;;63.83;33.97;;;2.30;99.90;;;;;;5082537;28;20040;-84
2021/12/06 07:17:23;;;;;;;65.60;34.50;;;2.20;99.90;;;;;;5077519;28;20504;-83
2021/12/06 07:19:48;;;;;;;58.90;30.23;;;2.20;99.90;;;;;;5061459;28;20101;-84
2021/12/06 07:22:14;;;;;;;64.03;32.78;;;2.20;99.90;;;;;;5073045;28;20137;-81
2021/12/06 07:24:40;;;;;;;62.55;36.08;;;2.20;99.90;;;;;;5050829;28;20051;-83
2021/12/06 07:27:06;;;;;;;62.15;30.00;;;2.30;99.90;;;;;;5041657;28;20040;-83
2021/12/06 07:29:33;;;;;;;70.03;34.83;;;2.30;99.90;;;;;;5080334;28;20531;-84
2021/12/06 07:32:01;;;;;;;66.47;34.78;;;2.20;99.90;;;;;;5073638;28;20058;-84
2021/12/06 07:34:27;;;;;;;74.82;37.40;;;2.10;99.90;;;;;;5056156;28;20052;-84
2021/12/06 07:36:52;;;;;;;62.63;34.22;;;2.10;99.90;;;;;;5053254;28;20040;-84
2021/12/06 07:39:18;;;;;;;69.70;37.78;;;2.20;99.90;;;;;;5102561;28;20044;-84
2021/12/06 07:41:44;;;;;;;62.55;33.50;;;2.20;99.90;;;;;;5085346;28;20431;-83
2021/12/06 07:44:10;;;;;;;76.47;36.20;;;2.20;99.90;;;;;;5088646;28;20061;-83
2021/12/06 07:46:35;;;;;;;63.35;33.17;;;2.20;99.90;;;;;;5056826;28;20047;-85
2021/12/06 07:49:01;;;;;;;71.78;36.22;;;2.10;99.90;;;;;;5081197;28;20401;-84
2021/12/06 07:51:28;;;;;;;71.53;38.83;;;2.20;99.90;;;;;;5062385;28;20485;-85
2021/12/06 07:53:55;;;;;;;72.05;35.97;;;2.20;99.90;;;;;;5071450;28;20520;-83
2021/12/06 07:56:21;;;;;;;69.75;38.13;;;2.30;99.90;;;;;;5075099;28;20425;-85
2021/12/06 07:58:48;;;;;;;73.55;38.05;;;2.20;99.90;;;;;;5067969;28;20051;-82
2021/12/06 08:01:14;;;;;;;78.93;37.92;;;2.20;99.90;;;;;;5078515;28;20094;-78
2021/12/06 08:03:41;;;;;;;76.72;36.85;;;2.10;99.90;;;;;;5053395;28;20044;-83
2021/12/06 08:06:08;;;;;;;69.97;35.47;;;2.20;99.90;;;;;;5079544;28;20032;-83
2021/12/06 08:08:35;;;;;;;74.07;36.95;;;2.20;99.90;;;;;;5090527;28;20044;-80
2021/12/06 08:11:06;;;;;;;79.53;37.42;;;2.20;99.90;;;;;;5085501;28;20036;-81
2021/12/06 08:13:34;;;;;;;78.50;38.15;;;2.30;99.90;;;;;;5037036;28;20059;-85
2021/12/06 08:16:21;;;;;;;70.43;35.85;;;2.30;99.90;;;;;;5053790;28;20398;-80
2021/12/06 08:18:48;;;;;;;76.63;36.33;;;2.30;99.90;;;;;;5054462;28;20044;-83
2021/12/06 08:21:15;;;;;;;69.15;35.35;;;2.40;99.90;;;;;;5062287;28;20055;-79
2021/12/06 08:23:41;;;;;;;74.25;37.95;;;2.30;99.90;;;;;;5060135;28;20037;-84
2021/12/06 08:26:09;;;;;;;71.10;35.75;;;2.40;99.90;;;;;;5061855;28;20556;-83
2021/12/06 08:28:35;;;;;;;77.03;38.40;;;2.30;99.90;;;;;;5064763;28;20036;-83
2021/12/06 08:31:02;;;;;;;68.78;34.42;;;2.40;99.90;;;;;;5066513;28;20048;-84
2021/12/06 08:33:28;;;;;;;68.75;35.72;;;2.30;99.90;;;;;;5084353;28;21655;-85
2021/12/06 08:35:56;;;;;;;67.35;34.00;;;2.40;99.90;;;;;;5081313;28;20041;-79
2021/12/06 08:38:26;;;;;;;65.18;32.78;;;2.40;99.90;;;;;;5070437;28;20063;-83
2021/12/06 08:40:53;;;;;;;67.13;34.67;;;2.50;99.90;;;;;;5090032;28;20075;-84
2021/12/06 08:43:19;;;;;;;70.00;34.67;;;2.50;99.90;;;;;;5084214;28;20044;-84
2021/12/06 08:46:15;;;;;;;71.40;36.78;;;2.50;99.90;;;;;;5105368;28;20044;-84
2021/12/06 08:48:43;;;;;;;73.32;37.25;;;2.50;99.90;;;;;;5059531;28;20052;-84
2021/12/06 08:51:26;;;;;;;68.97;36.42;;;2.60;99.90;;;;;;5080185;28;20044;-84
2021/12/06 08:53:52;;;;;;;70.78;37.35;;;2.60;99.90;;;;;;5078208;28;20056;-80
2021/12/06 08:56:18;;;;;;;82.10;36.50;;;2.60;99.90;;;;;;5080451;28;20044;-85
2021/12/06 08:58:45;;;;;;;80.75;38.53;;;2.40;99.90;;;;;;5053195;28;20040;-85
2021/12/06 09:01:11;;;;;;;79.03;37.00;;;2.60;99.90;;;;;;5080866;28;20044;-86
2021/12/06 09:03:37;;;;;;;73.25;37.15;;;2.60;99.90;;;;;;5071597;28;20048;-84
2021/12/06 09:06:06;;;;;;;71.93;34.92;;;2.60;99.90;;;;;;5055354;28;20106;-85
2021/12/06 09:08:32;;;;;;;73.40;37.42;;;2.70;99.90;;;;;;5053702;28;20044;-85
2021/12/06 09:10:58;;;;;;;84.38;37.17;;;2.70;99.90;;;;;;5075119;28;20041;-85
2021/12/06 09:13:25;;;;;;;81.32;38.85;;;2.50;99.90;;;;;;5070961;28;20159;-83
2021/12/06 09:15:52;;;;;;;81.95;38.63;;;2.50;99.90;;;;;;5082584;28;20032;-83
2021/12/06 09:18:20;;;;;;;79.03;36.38;;;2.70;99.90;;;;;;5035642;28;20083;-83
2021/12/06 09:20:48;;;;;;;77.13;38.75;;;2.50;99.90;;;;;;5077882;28;20101;-83
2021/12/06 09:23:15;;;;;;;73.72;37.33;;;2.60;99.90;;;;;;5089404;28;20577;-76
2021/12/06 09:25:42;;;;;;;72.53;36.03;;;2.60;99.90;;;;;;5089874;28;20119;-84
2021/12/06 09:28:08;;;;;;;78.43;35.55;;;2.60;99.90;;;;;;5071315;28;20048;-79
2021/12/06 09:30:35;;;;;;;71.57;36.70;;;2.50;99.90;;;;;;5071297;28;20504;-79
2021/12/06 09:33:04;;;;;;;74.53;39.65;;;2.50;99.90;;;;;;5052193;28;20462;-83
2021/12/06 09:35:30;;;;;;;75.30;37.10;;;2.50;99.90;;;;;;5070179;28;20049;-83
2021/12/06 09:37:58;;;;;;;72.10;35.33;;;2.70;99.90;;;;;;5056838;28;20100;-82
2021/12/06 09:40:27;;;;;;;65.47;31.70;;;2.60;99.90;;;;;;5079793;28;20048;-82
2021/12/06 09:42:54;;;;;;;71.05;33.42;;;2.60;99.90;;;;;;5077173;28;20678;-77
2021/12/06 09:45:23;;;;;;;75.55;35.42;;;2.70;99.90;;;;;;5073926;28;20075;-83
2021/12/06 09:47:52;;;;;;;65.90;33.78;;;2.70;99.90;;;;;;5082286;28;20328;-81
2021/12/06 09:50:25;;;;;;;75.35;37.50;;;2.60;99.90;;;;;;5064801;28;20100;-81
2021/12/06 09:52:53;;;;;;;74.63;36.50;;;2.70;99.90;;;;;;5079518;28;20052;-82
2021/12/06 09:55:19;;;;;;;65.88;33.50;;;2.70;99.90;;;;;;5074480;28;20044;-83
2021/12/06 09:57:45;;;;;;;62.22;35.30;;;2.70;99.90;;;;;;5050588;28;20036;-83
2021/12/06 10:00:14;;;;;;;59.95;31.42;;;2.60;99.90;;;;;;5076832;28;20421;-81
2021/12/06 10:02:40;;;;;;;61.03;33.08;;;2.60;99.90;;;;;;5038715;28;20094;-83
2021/12/06 10:05:06;;;;;;;56.30;32.78;;;2.50;99.90;;;;;;5059645;28;20048;-81
2021/12/06 10:07:33;;;;;;;57.88;30.80;;;2.50;99.90;;;;;;5055331;28;20048;-82
2021/12/06 10:09:59;;;;;;;57.08;29.38;;;2.60;99.90;;;;;;5080965;28;20062;-83
2021/12/06 10:12:26;;;;;;;57.03;30.98;;;2.50;99.90;;;;;;5062106;28;20052;-80
2021/12/06 10:14:55;;;;;;;53.70;29.27;;;2.50;99.90;;;;;;5066080;28;20126;-81
2021/12/06 10:17:20;;;;;;;55.13;30.05;;;2.60;99.90;;;;;;5071085;28;20080;-81
2021/12/06 10:19:47;;;;;;;58.85;31.35;;;2.60;99.90;;;;;;5076809;28;20084;-83
2021/12/06 10:22:15;;;;;;;58.10;33.20;;;2.70;99.90;;;;;;5075823;28;20037;-77
2021/12/06 10:24:48;;;;;;;60.30;35.08;;;2.60;99.90;;;;;;5066524;28;20077;-83
2021/12/06 10:27:15;;;;;;;64.18;32.22;;;2.80;99.90;;;;;;5043539;28;20052;-82
2021/12/06 10:29:53;;;;;;;60.50;31.60;;;2.80;99.90;;;;;;5078140;28;20048;-80
2021/12/06 10:32:25;;;;;;;56.97;31.95;;;2.70;99.90;;;;;;5062628;28;20452;-78
2021/12/06 10:34:56;;;;;;;53.67;28.45;;;2.70;99.90;;;;;;5089882;28;20050;-84
2021/12/06 10:37:28;;;;;;;63.58;35.28;;;2.70;99.90;;;;;;5070387;28;20059;-83
2021/12/06 10:39:54;;;;;;;63.80;33.17;;;2.60;99.90;;;;;;5097228;28;20044;-73
2021/12/06 10:42:32;;;;;;;54.40;32.80;;;2.60;99.90;;;;;;5087539;28;20084;-81
2021/12/06 10:45:05;;;;;;;54.75;29.95;;;2.70;99.90;;;;;;5097580;28;20048;-81
2021/12/06 10:47:30;;;;;;;53.10;30.33;;;2.60;99.90;;;;;;5059980;28;20047;-82
2021/12/06 10:50:16;;;;;;;57.72;34.58;;;2.60;99.90;;;;;;5106288;28;20044;-80
2021/12/06 10:52:50;;;;;;;94.45;35.38;;;2.70;99.90;;;;;;5071805;28;20078;-81
2021/12/06 10:55:17;;;;;;;61.78;32.00;;;2.60;99.90;;;;;;5083771;28;20124;-83
2021/12/06 10:58:05;;;;;;;65.28;37.10;;;2.60;99.90;;;;;;5059990;28;20065;-80
2021/12/06 11:00:41;;;;;;;60.13;33.55;;;2.70;99.90;;;;;;5069214;28;20048;-81
2021/12/06 11:03:23;;;;;;;60.40;32.35;;;2.70;99.90;;;;;;5061257;28;20059;-82
2021/12/06 11:05:51;;;;;;;52.60;28.92;;;2.70;99.90;;;;;;5076512;28;20048;-80
2021/12/06 11:08:18;;;;;;;48.50;27.60;;;2.80;99.90;;;;;;5055243;28;20473;-79
2021/12/06 11:10:57;;;;;;;53.33;27.13;;;2.80;99.90;;;;;;5041586;28;20045;-77
2021/12/06 11:13:28;;;;;;;48.47;28.08;;;2.70;99.90;;;;;;5071920;28;20118;-79
2021/12/06 11:16:21;;;;;;;48.92;27.50;;;3.00;99.90;;;;;;5055743;28;20449;-78
2021/12/06 11:18:49;;;;;;;44.55;25.65;;;3.00;99.90;;;;;;5047528;28;20406;-80
2021/12/06 11:21:19;;;;;;;49.83;23.42;;;3.20;99.90;;;;;;5079010;28;20059;-75
2021/12/06 11:24:16;;;;;;;42.00;23.73;;;2.90;99.90;;;;;;5063196;28;20730;-78
2021/12/06 11:26:51;;;;;;;43.10;25.65;;;3.00;99.90;;;;;;5031023;28;20056;-80
2021/12/06 11:29:23;;;;;;;43.50;23.08;;;2.90;99.90;;;;;;5078696;28;20031;-79
2021/12/06 11:31:55;;;;;;;42.85;23.75;;;3.00;99.90;;;;;;5062966;28;20040;-79
2021/12/06 11:34:24;;;;;;;41.83;23.48;;;2.80;99.90;;;;;;5088584;28;20067;-81
2021/12/06 11:36:49;;;;;;;42.65;27.85;;;2.80;99.90;;;;;;5093723;28;20071;-81
2021/12/06 11:39:19;;;;;;;44.22;27.83;;;2.60;99.90;;;;;;5110215;28;20074;-81
2021/12/06 11:41:49;;;;;;;44.50;25.17;;;2.80;99.90;;;;;;5083043;28;20044;-74
2021/12/06 11:44:21;;;;;;;48.90;26.73;;;2.70;99.90;;;;;;5101841;28;20020;-73
2021/12/06 11:46:54;;;;;;;47.10;27.80;;;2.60;99.90;;;;;;5104901;28;20040;-82
2021/12/06 11:49:26;;;;;;;47.92;28.42;;;2.80;99.90;;;;;;5081247;28;20450;-82
2021/12/06 11:51:52;;;;;;;48.97;27.02;;;2.70;99.90;;;;;;5063069;28;20048;-81
2021/12/06 11:54:18;;;;;;;46.88;26.10;;;2.70;99.90;;;;;;5086701;28;20048;-80
2021/12/06 11:56:48;;;;;;;52.33;28.10;;;2.70;99.90;;;;;;5082306;28;20112;-81
2021/12/06 11:59:16;;;;;;;53.60;29.05;;;2.70;99.90;;;;;;5062375;28;20088;-74
2021/12/06 12:01:53;;;;;;;54.67;29.58;;;2.70;99.90;;;;;;5071236;28;20040;-82
2021/12/06 12:04:22;;;;;;;59.28;29.20;;;2.80;99.90;;;;;;5073739;28;20048;-76
2021/12/06 12:07:00;;;;;;;57.70;30.83;;;2.80;99.90;;;;;;5085147;28;20082;-81
2021/12/06 12:09:32;;;;;;;64.80;34.05;;;2.80;99.90;;;;;;5079820;28;20044;-81
2021/12/06 12:12:03;;;;;;;64.75;34.28;;;2.80;99.90;;;;;;5068423;28;20379;-81
2021/12/06 12:14:40;;;;;;;65.40;33.45;;;2.80;99.90;;;;;;5068285;28;20052;-81
2021/12/06 12:17:26;;;;;;;64.05;34.75;;;2.80;99.90;;;;;;5071853;28;20056;-82
2021/12/06 12:19:55;;;;;;;75.70;37.17;;;2.70;99.90;;;;;;5073105;28;20040;-83
2021/12/06 12:22:21;;;;;;;69.22;36.20;;;2.80;99.90;;;;;;5062733;28;20487;-82
2021/12/06 12:24:51;;;;;;;77.97;38.08;;;2.90;99.90;;;;;;5057458;28;20033;-84
2021/12/06 12:29:45;;;;;;;68.30;38.30;;;2.90;99.90;;;;;;5073884;28;20044;-80
2021/12/06 12:32:12;;;;;;;72.57;40.05;;;2.90;99.90;;;;;;5072605;28;20059;-82
2021/12/06 12:34:41;;;;;;;70.40;39.90;;;3.10;99.90;;;;;;5069176;28;20123;-82
2021/12/06 12:37:10;;;;;;;68.38;36.83;;;3.30;99.90;;;;;;5071219;28;20047;-83
2021/12/06 12:39:36;;;;;;;62.40;35.80;;;3.10;99.90;;;;;;5071838;28;20717;-82
2021/12/06 12:42:05;;;;;;;67.50;35.55;;;3.00;99.90;;;;;;5072823;28;20055;-78
2021/12/06 12:45:03;;;;;;;66.82;36.50;;;3.00;99.90;;;;;;5069941;28;20396;-82
2021/12/06 12:47:31;;;;;;;59.97;32.78;;;3.10;99.90;;;;;;5055892;28;20056;-84
2021/12/06 12:50:08;;;;;;;55.33;28.88;;;3.00;99.90;;;;;;5071180;28;20127;-83
2021/12/06 12:52:37;;;;;;;63.15;33.00;;;3.10;99.90;;;;;;5059683;28;20084;-86
2021/12/06 12:55:23;;;;;;;67.00;35.88;;;3.10;99.90;;;;;;5063105;28;20116;-84
2021/12/06 12:57:50;;;;;;;67.18;36.10;;;3.10;99.90;;;;;;5066109;28;20041;-80
2021/12/06 13:00:22;;;;;;;58.28;33.42;;;3.20;99.90;;;;;;5069795;28;20455;-80